Time,TemperatureF,DewpointF,PressureIn,WindDirection,WindDirectionDegrees,WindSpeedMPH,WindSpeedGustMPH,Humidity,HourlyPrecipIn,Conditions,Clouds,dailyrainin,SoftwareType,DateUTC
2013-01-12 00:03:00,36.5,33.6,30.14,North,355,0.0,1.0,89,0.00,,,0.00,meteohub,2013-01-12 08:03:00,
2013-01-12 00:08:00,36.5,33.6,30.14,North,355,0.0,1.0,89,0.00,,,0.00,meteohub,2013-01-12 08:08:00,
2013-01-12 00:13:00,36.5,33.6,30.14,North,355,0.0,1.0,89,0.00,,,0.00,meteohub,2013-01-12 08:13:00,
2013-01-12 00:18:00,36.3,33.4,30.14,North,355,0.0,0.0,89,0.00,,,0.00,meteohub,2013-01-12 08:18:00,
2013-01-12 00:23:00,36.3,33.4,30.14,North,355,0.0,0.0,89,0.00,,,0.00,meteohub,2013-01-12 08:23:00,
2013-01-12 00:28:00,36.1,32.9,30.14,North,355,0.0,1.0,88,0.00,,,0.00,meteohub,2013-01-12 08:28:00,
2013-01-12 00:33:00,35.6,32.4,30.14,North,351,0.0,1.0,88,0.00,,,0.00,meteohub,2013-01-12 08:33:00,
2013-01-12 00:38:00,35.2,32.0,30.14,North,350,0.0,1.0,88,0.00,,,0.00,meteohub,2013-01-12 08:38:00,
2013-01-12 00:43:00,35.1,32.2,30.14,North,351,0.0,1.0,89,0.00,,,0.00,meteohub,2013-01-12 08:43:00,
2013-01-12 00:48:00,34.9,32.0,30.14,North,351,0.0,0.0,89,0.00,,,0.00,meteohub,2013-01-12 08:48:00,
2013-01-12 00:53:00,34.9,32.2,30.14,North,351,0.0,0.0,90,0.00,,,0.00,meteohub,2013-01-12 08:53:00,
2013-01-12 00:58:00,35.1,32.7,30.14,North,350,0.0,0.0,91,0.00,,,0.00,meteohub,2013-01-12 08:58:00,
2013-01-12 01:03:00,35.1,32.4,30.14,North,351,0.0,0.0,90,0.00,,,0.00,meteohub,2013-01-12 09:03:00,
2013-01-12 01:08:00,34.9,32.2,30.14,North,351,0.0,0.0,90,0.00,,,0.00,meteohub,2013-01-12 09:08:00,
2013-01-12 01:13:00,35.1,32.7,30.15,North,351,0.0,1.0,91,0.00,,,0.00,meteohub,2013-01-12 09:13:00,
2013-01-12 01:18:00,35.4,33.3,30.15,North,355,0.0,1.0,92,0.00,,,0.00,meteohub,2013-01-12 09:18:00,
2013-01-12 01:23:00,35.8,33.6,30.15,North,355,0.0,1.0,92,0.00,,,0.00,meteohub,2013-01-12 09:23:00,
2013-01-12 01:28:00,36.0,33.6,30.14,North,355,0.0,1.0,91,0.00,,,0.00,meteohub,2013-01-12 09:28:00,
2013-01-12 01:33:00,36.0,33.8,30.15,North,355,0.0,0.0,92,0.00,,,0.00,meteohub,2013-01-12 09:33:00,
2013-01-12 01:38:00,36.1,33.8,30.15,North,355,0.0,2.0,91,0.00,,,0.00,meteohub,2013-01-12 09:38:00,
2013-01-12 01:43:00,36.1,33.8,30.15,North,355,0.0,2.0,91,0.00,,,0.00,meteohub,2013-01-12 09:43:00,
2013-01-12 01:48:00,36.1,34.0,30.15,North,0,0.0,2.0,92,0.00,,,0.00,meteohub,2013-01-12 09:48:00,
2013-01-12 01:53:00,36.3,34.0,30.15,North,349,0.0,2.0,91,0.00,,,0.00,meteohub,2013-01-12 09:53:00,
2013-01-12 01:58:00,36.3,34.0,30.15,North,0,0.0,2.0,91,0.00,,,0.00,meteohub,2013-01-12 09:58:00,
2013-01-12 02:03:00,36.3,34.0,30.14,North,0,0.0,2.0,91,0.00,,,0.00,meteohub,2013-01-12 10:03:00,
2013-01-12 02:08:00,36.1,33.8,30.15,North,0,0.0,2.0,91,0.00,,,0.00,meteohub,2013-01-12 10:08:00,
2013-01-12 02:13:00,36.1,33.8,30.15,North,0,0.0,2.0,91,0.00,,,0.00,meteohub,2013-01-12 10:13:00,
2013-01-12 02:18:00,36.1,33.8,30.15,North,0,0.0,1.0,91,0.00,,,0.00,meteohub,2013-01-12 10:18:00,
2013-01-12 02:23:00,36.0,33.8,30.15,North,0,0.0,0.0,92,0.00,,,0.00,meteohub,2013-01-12 10:23:00,
2013-01-12 02:28:00,36.0,33.6,30.15,North,0,0.0,1.0,91,0.00,,,0.00,meteohub,2013-01-12 10:28:00,
2013-01-12 02:33:00,35.8,33.4,30.15,North,0,0.0,1.0,91,0.00,,,0.00,meteohub,2013-01-12 10:33:00,
2013-01-12 02:38:00,35.8,33.4,30.16,North,0,0.0,1.0,91,0.00,,,0.00,meteohub,2013-01-12 10:38:00,
2013-01-12 02:43:00,35.6,33.3,30.16,North,0,0.0,0.0,91,0.00,,,0.00,meteohub,2013-01-12 10:43:00,
2013-01-12 02:48:00,35.4,33.1,30.16,North,0,0.0,0.0,91,0.00,,,0.00,meteohub,2013-01-12 10:48:00,
2013-01-12 02:53:00,35.4,33.3,30.16,North,0,0.0,0.0,92,0.00,,,0.00,meteohub,2013-01-12 10:53:00,
2013-01-12 02:58:00,35.4,33.3,30.16,North,0,0.0,1.0,92,0.00,,,0.00,meteohub,2013-01-12 10:58:00,
2013-01-12 03:03:00,35.6,33.4,30.15,North,0,0.0,1.0,92,0.00,,,0.00,meteohub,2013-01-12 11:03:00,
2013-01-12 03:08:00,35.8,33.6,30.15,North,0,0.0,1.0,92,0.00,,,0.00,meteohub,2013-01-12 11:08:00,
2013-01-12 03:13:00,35.8,33.6,30.15,North,0,0.0,2.0,92,0.00,,,0.00,meteohub,2013-01-12 11:13:00,
2013-01-12 03:18:00,35.8,33.6,30.16,North,0,0.0,2.0,92,0.00,,,0.00,meteohub,2013-01-12 11:18:00,
2013-01-12 03:23:00,35.8,33.6,30.16,North,0,0.0,1.0,92,0.00,,,0.00,meteohub,2013-01-12 11:23:00,
2013-01-12 03:28:00,35.8,33.6,30.16,North,0,0.0,1.0,92,0.00,,,0.00,meteohub,2013-01-12 11:28:00,
2013-01-12 03:33:00,35.8,34.0,30.16,North,0,0.0,0.0,93,0.00,,,0.00,meteohub,2013-01-12 11:33:00,
2013-01-12 03:38:00,35.8,34.0,30.16,North,0,0.0,0.0,93,0.00,,,0.00,meteohub,2013-01-12 11:38:00,
2013-01-12 03:43:00,35.8,34.0,30.16,North,0,0.0,0.0,93,0.00,,,0.00,meteohub,2013-01-12 11:43:00,
2013-01-12 03:48:00,35.6,33.8,30.16,North,0,0.0,0.0,93,0.00,,,0.00,meteohub,2013-01-12 11:48:00,
2013-01-12 03:53:00,35.6,33.8,30.16,North,0,0.0,0.0,93,0.00,,,0.00,meteohub,2013-01-12 11:53:00,
2013-01-12 03:58:00,35.6,33.8,30.16,North,0,0.0,0.0,93,0.00,,,0.00,meteohub,2013-01-12 11:58:00,
2013-01-12 04:03:00,35.4,33.6,30.16,North,0,0.0,1.0,93,0.00,,,0.00,meteohub,2013-01-12 12:03:00,
2013-01-12 04:08:00,35.4,33.6,30.16,North,0,0.0,1.0,93,0.00,,,0.00,meteohub,2013-01-12 12:08:00,
2013-01-12 04:13:00,35.4,33.6,30.16,North,0,0.0,1.0,93,0.00,,,0.00,meteohub,2013-01-12 12:13:00,
2013-01-12 04:18:00,35.4,33.6,30.16,North,0,0.0,1.0,93,0.00,,,0.00,meteohub,2013-01-12 12:18:00,
2013-01-12 04:23:00,35.4,33.6,30.17,North,0,0.0,1.0,93,0.00,,,0.00,meteohub,2013-01-12 12:23:00,
2013-01-12 04:28:00,35.4,33.6,30.17,North,0,0.0,0.0,93,0.00,,,0.00,meteohub,2013-01-12 12:28:00,
2013-01-12 04:33:00,35.2,33.4,30.17,North,0,0.0,1.0,93,0.00,,,0.00,meteohub,2013-01-12 12:33:00,
2013-01-12 04:38:00,35.2,33.4,30.17,North,0,0.0,1.0,93,0.00,,,0.00,meteohub,2013-01-12 12:38:00,
2013-01-12 04:43:00,35.1,33.3,30.17,North,0,0.0,1.0,93,0.00,,,0.00,meteohub,2013-01-12 12:43:00,
2013-01-12 04:48:00,35.1,33.3,30.17,North,0,0.0,0.0,93,0.00,,,0.00,meteohub,2013-01-12 12:48:00,
2013-01-12 04:53:00,35.1,33.3,30.18,North,0,0.0,0.0,93,0.00,,,0.00,meteohub,2013-01-12 12:53:00,
2013-01-12 04:58:00,35.1,33.3,30.18,North,0,0.0,0.0,93,0.00,,,0.00,meteohub,2013-01-12 12:58:00,
2013-01-12 05:03:00,35.1,33.3,30.17,North,0,0.0,0.0,93,0.00,,,0.00,meteohub,2013-01-12 13:03:00,
2013-01-12 05:08:00,35.1,33.3,30.18,North,0,0.0,0.0,93,0.00,,,0.00,meteohub,2013-01-12 13:08:00,
2013-01-12 05:13:00,34.9,33.1,30.18,North,0,0.0,0.0,93,0.00,,,0.00,meteohub,2013-01-12 13:13:00,
2013-01-12 05:18:00,34.7,32.9,30.17,North,0,0.0,1.0,93,0.00,,,0.00,meteohub,2013-01-12 13:18:00,
2013-01-12 05:24:00,34.5,32.7,30.18,North,0,1.0,1.0,93,0.00,,,0.00,meteohub,2013-01-12 13:24:00,
2013-01-12 05:29:00,34.5,32.7,30.18,NNW,348,0.0,1.0,93,0.00,,,0.00,meteohub,2013-01-12 13:29:00,
2013-01-12 05:34:00,34.3,32.7,30.18,North,0,0.0,2.0,94,0.00,,,0.00,meteohub,2013-01-12 13:34:00,
2013-01-12 05:39:00,34.3,32.7,30.18,North,0,0.0,2.0,94,0.00,,,0.00,meteohub,2013-01-12 13:39:00,
2013-01-12 05:44:00,34.3,32.7,30.18,North,0,0.0,2.0,94,0.00,,,0.00,meteohub,2013-01-12 13:44:00,
2013-01-12 05:49:00,34.3,32.7,30.18,North,0,0.0,0.0,94,0.00,,,0.00,meteohub,2013-01-12 13:49:00,
2013-01-12 05:54:00,34.5,32.9,30.19,North,0,0.0,0.0,94,0.00,,,0.00,meteohub,2013-01-12 13:54:00,
2013-01-12 05:59:00,34.5,32.9,30.19,North,0,0.0,0.0,94,0.00,,,0.00,meteohub,2013-01-12 13:59:00,
2013-01-12 06:04:00,34.7,33.1,30.19,North,0,0.0,0.0,94,0.00,,,0.00,meteohub,2013-01-12 14:04:00,
2013-01-12 06:09:00,34.9,33.3,30.19,North,0,0.0,0.0,94,0.00,,,0.00,meteohub,2013-01-12 14:09:00,
2013-01-12 06:14:00,34.9,33.3,30.19,North,0,0.0,0.0,94,0.00,,,0.00,meteohub,2013-01-12 14:14:00,
2013-01-12 06:19:00,34.9,33.3,30.19,North,0,0.0,0.0,94,0.00,,,0.00,meteohub,2013-01-12 14:19:00,
2013-01-12 06:25:00,34.9,33.3,30.20,North,0,0.0,0.0,94,0.00,,,0.00,meteohub,2013-01-12 14:25:00,
2013-01-12 06:30:00,35.1,33.4,30.20,North,0,0.0,0.0,94,0.00,,,0.00,meteohub,2013-01-12 14:30:00,
2013-01-12 06:35:00,35.1,33.4,30.20,North,0,0.0,0.0,94,0.00,,,0.00,meteohub,2013-01-12 14:35:00,
2013-01-12 06:40:00,35.2,33.6,30.20,North,0,0.0,1.0,94,0.00,,,0.00,meteohub,2013-01-12 14:40:00,
2013-01-12 06:45:00,35.2,33.6,30.21,North,0,0.0,1.0,94,0.00,,,0.00,meteohub,2013-01-12 14:45:00,
2013-01-12 06:50:00,35.2,33.6,30.21,North,0,0.0,1.0,94,0.00,,,0.00,meteohub,2013-01-12 14:50:00,
2013-01-12 06:55:00,35.2,33.6,30.21,North,0,0.0,0.0,94,0.00,,,0.00,meteohub,2013-01-12 14:55:00,
2013-01-12 07:00:00,35.2,33.6,30.21,North,0,0.0,0.0,94,0.00,,,0.00,meteohub,2013-01-12 15:00:00,
2013-01-12 07:06:00,35.1,33.4,30.21,North,0,0.0,1.0,94,0.00,,,0.00,meteohub,2013-01-12 15:06:00,
2013-01-12 07:11:00,35.1,33.4,30.21,North,0,0.0,1.0,94,0.00,,,0.00,meteohub,2013-01-12 15:11:00,
2013-01-12 07:16:00,34.9,33.3,30.21,North,0,0.0,1.0,94,0.00,,,0.00,meteohub,2013-01-12 15:16:00,
2013-01-12 07:21:00,34.7,33.1,30.21,North,0,0.0,0.0,94,0.00,,,0.00,meteohub,2013-01-12 15:21:00,
2013-01-12 07:26:00,34.3,32.7,30.21,North,0,0.0,0.0,94,0.00,,,0.00,meteohub,2013-01-12 15:26:00,
2013-01-12 07:31:00,34.3,32.7,30.22,North,0,0.0,0.0,94,0.00,,,0.00,meteohub,2013-01-12 15:31:00,
2013-01-12 07:36:00,34.3,32.7,30.22,North,0,0.0,0.0,94,0.00,,,0.00,meteohub,2013-01-12 15:36:00,
2013-01-12 07:42:00,34.2,32.5,30.22,North,0,0.0,0.0,94,0.00,,,0.00,meteohub,2013-01-12 15:42:00,
2013-01-12 07:47:00,34.2,32.5,30.22,North,0,0.0,0.0,94,0.00,,,0.00,meteohub,2013-01-12 15:47:00,
2013-01-12 07:52:00,34.2,32.5,30.22,North,0,0.0,0.0,94,0.00,,,0.00,meteohub,2013-01-12 15:52:00,
2013-01-12 07:57:00,34.2,32.5,30.23,North,0,0.0,0.0,94,0.00,,,0.00,meteohub,2013-01-12 15:57:00,
2013-01-12 08:02:00,34.3,32.7,30.23,North,349,0.0,0.0,94,0.00,,,0.00,meteohub,2013-01-12 16:02:00,
2013-01-12 08:07:00,34.5,33.3,30.23,North,349,0.0,2.0,95,0.00,,,0.00,meteohub,2013-01-12 16:07:00,
2013-01-12 08:12:00,35.1,33.8,30.24,NNW,348,0.0,2.0,95,0.00,,,0.00,meteohub,2013-01-12 16:12:00,
2013-01-12 08:17:00,35.2,34.0,30.24,North,0,0.0,1.0,95,0.00,,,0.00,meteohub,2013-01-12 16:17:00,
2013-01-12 08:22:00,35.2,33.6,30.24,North,0,0.0,2.0,94,0.00,,,0.00,meteohub,2013-01-12 16:22:00,
2013-01-12 08:28:00,35.1,33.4,30.24,NW,310,0.0,3.0,94,0.00,,,0.00,meteohub,2013-01-12 16:28:00,
2013-01-12 08:33:00,35.1,33.4,30.24,NW,311,0.0,3.0,94,0.00,,,0.00,meteohub,2013-01-12 16:33:00,
2013-01-12 08:38:00,34.9,33.3,30.24,NW,310,0.0,3.0,94,0.00,,,0.00,meteohub,2013-01-12 16:38:00,
2013-01-12 08:43:00,34.9,33.3,30.24,NW,310,0.0,1.0,94,0.00,,,0.00,meteohub,2013-01-12 16:43:00,
2013-01-12 08:48:00,34.3,32.7,30.25,NW,311,0.0,1.0,94,0.00,,,0.00,meteohub,2013-01-12 16:48:00,
2013-01-12 08:53:00,34.3,32.7,30.24,NW,311,0.0,1.0,94,0.00,,,0.00,meteohub,2013-01-12 16:53:00,
2013-01-12 08:58:00,34.2,32.5,30.24,NW,311,0.0,1.0,94,0.00,,,0.00,meteohub,2013-01-12 16:58:00,
2013-01-12 09:03:00,34.2,32.5,30.24,NW,311,0.0,1.0,94,0.00,,,0.00,meteohub,2013-01-12 17:03:00,
2013-01-12 09:08:00,34.2,32.5,30.24,NW,311,0.0,2.0,94,0.00,,,0.00,meteohub,2013-01-12 17:08:00,
2013-01-12 09:13:00,34.2,32.5,30.24,NW,311,0.0,2.0,94,0.00,,,0.00,meteohub,2013-01-12 17:13:00,
2013-01-12 09:18:00,34.3,32.7,30.24,NW,311,0.0,3.0,94,0.00,,,0.00,meteohub,2013-01-12 17:18:00,
2013-01-12 09:23:00,34.3,32.7,30.24,NW,310,0.0,3.0,94,0.00,,,0.00,meteohub,2013-01-12 17:23:00,
2013-01-12 09:28:00,34.3,32.7,30.24,NW,310,0.0,3.0,94,0.00,,,0.00,meteohub,2013-01-12 17:28:00,
2013-01-12 09:33:00,34.3,32.7,30.24,NW,310,0.0,1.0,94,0.00,,,0.00,meteohub,2013-01-12 17:33:00,
2013-01-12 09:38:00,34.5,33.3,30.24,NW,310,0.0,1.0,95,0.00,,,0.00,meteohub,2013-01-12 17:38:00,
2013-01-12 09:43:00,35.2,34.0,30.24,NW,310,0.0,2.0,95,0.00,,,0.00,meteohub,2013-01-12 17:43:00,
2013-01-12 09:48:00,35.4,34.2,30.24,SW,223,0.0,2.0,95,0.00,,,0.00,meteohub,2013-01-12 17:48:00,
2013-01-12 09:53:00,36.1,34.9,30.24,SW,223,0.0,2.0,95,0.00,,,0.00,meteohub,2013-01-12 17:53:00,
2013-01-12 09:58:00,36.5,35.2,30.23,WNW,292,0.0,2.0,95,0.00,,,0.00,meteohub,2013-01-12 17:58:00,
2013-01-12 10:03:00,36.9,36.9,30.24,WNW,295,1.0,3.0,100,0.00,,,0.00,meteohub,2013-01-12 18:03:00,
2013-01-12 10:08:00,37.2,36.0,30.23,WNW,295,0.0,3.0,95,0.00,,,0.00,meteohub,2013-01-12 18:08:00,
2013-01-12 10:13:00,37.8,36.5,30.24,WNW,294,0.0,3.0,95,0.00,,,0.00,meteohub,2013-01-12 18:13:00,
2013-01-12 10:18:00,38.5,36.9,30.24,WNW,295,1.0,2.0,94,0.00,,,0.00,meteohub,2013-01-12 18:18:00,
2013-01-12 10:24:00,38.8,37.0,30.24,SW,232,0.0,3.0,93,0.00,,,0.00,meteohub,2013-01-12 18:24:00,
2013-01-12 10:29:00,39.6,37.2,30.23,South,186,0.0,3.0,91,0.00,,,0.00,meteohub,2013-01-12 18:29:00,
2013-01-12 10:34:00,39.9,36.9,30.23,South,186,0.0,3.0,89,0.00,,,0.00,meteohub,2013-01-12 18:34:00,
2013-01-12 10:39:00,40.3,36.5,30.23,South,184,0.0,3.0,86,0.00,,,0.00,meteohub,2013-01-12 18:39:00,
2013-01-12 10:44:00,40.8,36.7,30.23,South,186,3.0,3.0,85,0.00,,,0.00,meteohub,2013-01-12 18:44:00,
2013-01-12 10:49:00,41.2,36.1,30.22,South,186,0.0,3.0,82,0.00,,,0.00,meteohub,2013-01-12 18:49:00,
2013-01-12 10:54:00,41.7,36.0,30.22,South,186,0.0,4.0,80,0.00,,,0.00,meteohub,2013-01-12 18:54:00,
2013-01-12 10:59:00,42.3,36.0,30.22,West,276,0.0,4.0,78,0.00,,,0.00,meteohub,2013-01-12 18:59:00,
2013-01-12 11:05:00,42.4,35.8,30.22,West,275,0.0,4.0,77,0.00,,,0.00,meteohub,2013-01-12 19:05:00,
2013-01-12 11:10:00,43.0,36.9,30.22,SSW,210,1.0,3.0,79,0.00,,,0.00,meteohub,2013-01-12 19:10:00,
2013-01-12 11:15:00,43.2,36.7,30.22,SSW,211,0.0,3.0,78,0.00,,,0.00,meteohub,2013-01-12 19:15:00,
2013-01-12 11:20:00,43.7,37.2,30.21,SSW,204,0.0,2.0,78,0.00,,,0.00,meteohub,2013-01-12 19:20:00,
2013-01-12 11:25:00,43.9,37.2,30.21,South,180,0.0,2.0,77,0.00,,,0.00,meteohub,2013-01-12 19:25:00,
2013-01-12 11:30:00,44.2,37.2,30.21,SSW,202,0.0,3.0,76,0.00,,,0.00,meteohub,2013-01-12 19:30:00,
2013-01-12 11:35:00,44.4,36.3,30.20,NW,311,0.0,3.0,73,0.00,,,0.00,meteohub,2013-01-12 19:35:00,
2013-01-12 11:40:00,44.6,35.8,30.20,SSW,199,0.0,5.0,71,0.00,,,0.00,meteohub,2013-01-12 19:40:00,
2013-01-12 11:45:00,44.4,35.2,30.20,WNW,287,1.0,5.0,70,0.00,,,0.00,meteohub,2013-01-12 19:45:00,
2013-01-12 11:50:00,44.2,35.1,30.20,WNW,288,0.0,6.0,70,0.00,,,0.00,meteohub,2013-01-12 19:50:00,
2013-01-12 11:56:00,44.2,34.0,30.19,WNW,288,0.0,6.0,67,0.00,,,0.00,meteohub,2013-01-12 19:56:00,
2013-01-12 12:01:00,44.2,34.0,30.19,SW,215,4.0,6.0,67,0.00,,,0.00,meteohub,2013-01-12 20:01:00,
2013-01-12 12:06:00,44.2,32.0,30.19,West,281,2.0,3.0,62,0.00,,,0.00,meteohub,2013-01-12 20:06:00,
2013-01-12 12:11:00,44.4,31.8,30.19,NW,317,2.0,4.0,61,0.00,,,0.00,meteohub,2013-01-12 20:11:00,
2013-01-12 12:16:00,44.6,32.4,30.19,NW,319,2.0,5.0,62,0.00,,,0.00,meteohub,2013-01-12 20:16:00,
2013-01-12 12:21:00,44.6,32.4,30.18,NW,315,2.0,5.0,62,0.00,,,0.00,meteohub,2013-01-12 20:21:00,
2013-01-12 12:26:00,44.4,32.5,30.19,NW,313,0.0,6.0,63,0.00,,,0.00,meteohub,2013-01-12 20:26:00,
2013-01-12 12:31:00,44.2,30.7,30.18,SW,222,3.0,6.0,59,0.00,,,0.00,meteohub,2013-01-12 20:31:00,
2013-01-12 12:36:00,44.2,31.6,30.18,NW,304,0.0,4.0,61,0.00,,,0.00,meteohub,2013-01-12 20:36:00,
2013-01-12 12:41:00,44.8,31.8,30.18,SW,218,3.0,5.0,60,0.00,,,0.00,meteohub,2013-01-12 20:41:00,
2013-01-12 12:46:00,45.0,30.2,30.18,NW,307,0.0,5.0,56,0.00,,,0.00,meteohub,2013-01-12 20:46:00,
2013-01-12 12:51:00,45.3,29.7,30.18,SE,134,0.0,5.0,54,0.00,,,0.00,meteohub,2013-01-12 20:51:00,
2013-01-12 12:57:00,45.7,30.0,30.18,SSE,167,1.0,5.0,54,0.00,,,0.00,meteohub,2013-01-12 20:57:00,
2013-01-12 13:02:00,45.9,27.9,30.17,WNW,287,0.0,4.0,49,0.00,,,0.00,meteohub,2013-01-12 21:02:00,
2013-01-12 13:07:00,46.6,28.4,30.17,WNW,294,2.0,4.0,49,0.00,,,0.00,meteohub,2013-01-12 21:07:00,
2013-01-12 13:12:00,46.8,26.6,30.17,South,171,0.0,4.0,45,0.00,,,0.00,meteohub,2013-01-12 21:12:00,
2013-01-12 13:17:00,46.9,26.2,30.17,South,178,0.0,4.0,44,0.00,,,0.00,meteohub,2013-01-12 21:17:00,
2013-01-12 13:22:00,46.8,26.6,30.17,SSW,211,0.0,3.0,45,0.00,,,0.00,meteohub,2013-01-12 21:22:00,
2013-01-12 13:27:00,46.8,27.7,30.17,South,191,0.0,3.0,47,0.00,,,0.00,meteohub,2013-01-12 21:27:00,
2013-01-12 13:32:00,46.9,27.7,30.17,South,191,1.0,6.0,47,0.00,,,0.00,meteohub,2013-01-12 21:32:00,
2013-01-12 13:37:00,46.9,28.2,30.17,West,271,0.0,6.0,48,0.00,,,0.00,meteohub,2013-01-12 21:37:00,
2013-01-12 13:42:00,47.1,27.9,30.17,NW,313,0.0,3.0,47,0.00,,,0.00,meteohub,2013-01-12 21:42:00,
2013-01-12 13:47:00,47.3,29.1,30.17,SW,219,2.0,4.0,49,0.00,,,0.00,meteohub,2013-01-12 21:47:00,
2013-01-12 13:52:00,47.5,29.3,30.16,NW,314,0.0,9.0,49,0.00,,,0.00,meteohub,2013-01-12 21:52:00,
2013-01-12 13:57:00,48.0,30.2,30.16,NW,319,0.0,9.0,50,0.00,,,0.00,meteohub,2013-01-12 21:57:00,
2013-01-12 14:03:00,48.0,29.8,30.16,NW,307,0.0,9.0,49,0.00,,,0.00,meteohub,2013-01-12 22:03:00,
2013-01-12 14:08:00,48.0,28.8,30.16,NW,307,0.0,5.0,47,0.00,,,0.00,meteohub,2013-01-12 22:08:00,
2013-01-12 14:13:00,48.2,28.9,30.16,South,176,0.0,5.0,47,0.00,,,0.00,meteohub,2013-01-12 22:13:00,
2013-01-12 14:18:00,47.7,27.3,30.16,South,175,0.0,4.0,45,0.00,,,0.00,meteohub,2013-01-12 22:18:00,
2013-01-12 14:23:00,46.8,27.1,30.16,South,175,0.0,4.0,46,0.00,,,0.00,meteohub,2013-01-12 22:23:00,
2013-01-12 14:28:00,45.9,26.2,30.16,South,176,0.0,2.0,46,0.00,,,0.00,meteohub,2013-01-12 22:28:00,
2013-01-12 14:33:00,45.1,25.5,30.16,South,175,0.0,1.0,46,0.00,,,0.00,meteohub,2013-01-12 22:33:00,
2013-01-12 14:38:00,45.1,26.6,30.16,South,175,0.0,1.0,48,0.00,,,0.00,meteohub,2013-01-12 22:38:00,
2013-01-12 14:43:00,45.0,25.3,30.16,South,175,0.0,1.0,46,0.00,,,0.00,meteohub,2013-01-12 22:43:00,
2013-01-12 14:48:00,44.6,26.1,30.16,South,175,0.0,1.0,48,0.00,,,0.00,meteohub,2013-01-12 22:48:00,
2013-01-12 14:53:00,44.4,28.4,30.16,South,175,0.0,1.0,53,0.00,,,0.00,meteohub,2013-01-12 22:53:00,
2013-01-12 14:58:00,44.2,27.7,30.16,South,175,0.0,0.0,52,0.00,,,0.00,meteohub,2013-01-12 22:58:00,
2013-01-12 15:03:00,43.9,27.9,30.16,South,175,0.0,0.0,53,0.00,,,0.00,meteohub,2013-01-12 23:03:00,
2013-01-12 15:08:00,44.2,28.2,30.15,South,175,0.0,1.0,53,0.00,,,0.00,meteohub,2013-01-12 23:08:00,
2013-01-12 15:13:00,45.0,29.3,30.15,South,175,0.0,2.0,54,0.00,,,0.00,meteohub,2013-01-12 23:13:00,
2013-01-12 15:19:00,45.5,27.9,30.15,South,175,0.0,2.0,50,0.00,,,0.00,meteohub,2013-01-12 23:19:00,
2013-01-12 15:24:00,46.2,27.7,30.15,South,184,0.0,2.0,48,0.00,,,0.00,meteohub,2013-01-12 23:24:00,
2013-01-12 15:29:00,46.8,29.7,30.15,South,184,0.0,1.0,51,0.00,,,0.00,meteohub,2013-01-12 23:29:00,
2013-01-12 15:34:00,46.8,29.1,30.15,SW,222,0.0,1.0,50,0.00,,,0.00,meteohub,2013-01-12 23:34:00,
2013-01-12 15:39:00,46.8,29.1,30.15,SW,221,0.0,2.0,50,0.00,,,0.00,meteohub,2013-01-12 23:39:00,
2013-01-12 15:45:00,46.4,29.7,30.15,SW,221,0.0,2.0,52,0.00,,,0.00,meteohub,2013-01-12 23:45:00,
2013-01-12 15:50:00,45.9,28.2,30.15,SW,222,0.0,2.0,50,0.00,,,0.00,meteohub,2013-01-12 23:50:00,
2013-01-12 15:55:00,45.1,28.9,30.14,SW,222,0.0,1.0,53,0.00,,,0.00,meteohub,2013-01-12 23:55:00,
2013-01-12 16:00:00,44.6,30.4,30.15,SW,222,0.0,0.0,57,0.00,,,0.00,meteohub,2013-01-13 00:00:00,
2013-01-12 16:06:00,44.1,30.2,30.15,SW,222,0.0,0.0,58,0.00,,,0.00,meteohub,2013-01-13 00:06:00,
2013-01-12 16:11:00,43.5,29.7,30.15,SW,222,0.0,0.0,58,0.00,,,0.00,meteohub,2013-01-13 00:11:00,
2013-01-12 16:16:00,43.2,29.8,30.15,SW,221,0.0,0.0,59,0.00,,,0.00,meteohub,2013-01-13 00:16:00,
2013-01-12 16:21:00,42.6,30.9,30.15,SW,222,0.0,0.0,63,0.00,,,0.00,meteohub,2013-01-13 00:21:00,
2013-01-12 16:26:00,42.1,30.4,30.14,SW,222,0.0,0.0,63,0.00,,,0.00,meteohub,2013-01-13 00:26:00,
2013-01-12 16:31:00,41.5,31.1,30.14,SW,222,0.0,0.0,66,0.00,,,0.00,meteohub,2013-01-13 00:31:00,
2013-01-12 16:37:00,41.2,31.5,30.15,SW,222,0.0,1.0,68,0.00,,,0.00,meteohub,2013-01-13 00:37:00,
2013-01-12 16:42:00,41.0,31.6,30.14,SW,222,0.0,0.0,69,0.00,,,0.00,meteohub,2013-01-13 00:42:00,
2013-01-12 16:47:00,40.6,31.6,30.14,SW,222,0.0,0.0,70,0.00,,,0.00,meteohub,2013-01-13 00:47:00,
2013-01-12 16:52:00,40.5,31.8,30.14,SW,222,0.0,0.0,71,0.00,,,0.00,meteohub,2013-01-13 00:52:00,
2013-01-12 16:57:00,40.5,31.8,30.14,West,272,0.0,2.0,71,0.00,,,0.00,meteohub,2013-01-13 00:57:00,
2013-01-12 17:02:00,40.5,31.8,30.14,West,271,0.0,2.0,71,0.00,,,0.00,meteohub,2013-01-13 01:02:00,
2013-01-12 17:07:00,40.5,32.2,30.14,West,271,0.0,2.0,72,0.00,,,0.00,meteohub,2013-01-13 01:07:00,
2013-01-12 17:13:00,40.5,32.2,30.14,West,271,0.0,1.0,72,0.00,,,0.00,meteohub,2013-01-13 01:13:00,
2013-01-12 17:18:00,40.3,32.4,30.14,West,271,0.0,0.0,73,0.00,,,0.00,meteohub,2013-01-13 01:18:00,
2013-01-12 17:23:00,40.1,32.2,30.14,West,271,0.0,2.0,73,0.00,,,0.00,meteohub,2013-01-13 01:23:00,
2013-01-12 17:28:00,39.9,32.0,30.14,West,271,0.0,2.0,73,0.00,,,0.00,meteohub,2013-01-13 01:28:00,
2013-01-12 17:33:00,39.7,31.8,30.14,West,271,0.0,2.0,73,0.00,,,0.00,meteohub,2013-01-13 01:33:00,
2013-01-12 17:38:00,39.6,32.0,30.14,West,271,0.0,2.0,74,0.00,,,0.00,meteohub,2013-01-13 01:38:00,
2013-01-12 17:43:00,39.2,31.6,30.14,West,271,0.0,2.0,74,0.00,,,0.00,meteohub,2013-01-13 01:43:00,
2013-01-12 17:48:00,38.8,31.6,30.14,West,271,0.0,0.0,75,0.00,,,0.00,meteohub,2013-01-13 01:48:00,
2013-01-12 17:53:00,38.7,31.8,30.14,West,271,0.0,1.0,76,0.00,,,0.00,meteohub,2013-01-13 01:53:00,
2013-01-12 17:58:00,38.3,31.5,30.14,West,271,0.0,1.0,76,0.00,,,0.00,meteohub,2013-01-13 01:58:00,
2013-01-12 18:03:00,37.9,31.5,30.14,West,271,0.0,1.0,77,0.00,,,0.00,meteohub,2013-01-13 02:03:00,
2013-01-12 18:08:00,37.6,31.1,30.14,West,271,0.0,1.0,77,0.00,,,0.00,meteohub,2013-01-13 02:08:00,
2013-01-12 18:13:00,37.2,30.9,30.14,West,271,0.0,1.0,78,0.00,,,0.00,meteohub,2013-01-13 02:13:00,
2013-01-12 18:18:00,36.7,30.6,30.14,West,271,0.0,1.0,78,0.00,,,0.00,meteohub,2013-01-13 02:18:00,
2013-01-12 18:23:00,36.0,30.0,30.14,West,271,0.0,1.0,79,0.00,,,0.00,meteohub,2013-01-13 02:23:00,
2013-01-12 18:28:00,35.8,30.6,30.13,West,271,0.0,1.0,81,0.00,,,0.00,meteohub,2013-01-13 02:28:00,
2013-01-12 18:33:00,36.0,30.9,30.14,West,271,0.0,1.0,82,0.00,,,0.00,meteohub,2013-01-13 02:33:00,
2013-01-12 18:38:00,36.1,30.6,30.14,West,271,0.0,1.0,80,0.00,,,0.00,meteohub,2013-01-13 02:38:00,
2013-01-12 18:43:00,36.1,30.6,30.14,West,271,0.0,1.0,80,0.00,,,0.00,meteohub,2013-01-13 02:43:00,
2013-01-12 18:48:00,35.8,30.2,30.14,West,271,0.0,0.0,80,0.00,,,0.00,meteohub,2013-01-13 02:48:00,
2013-01-12 18:53:00,35.8,30.2,30.14,West,271,0.0,0.0,80,0.00,,,0.00,meteohub,2013-01-13 02:53:00,
2013-01-12 18:58:00,35.4,29.8,30.14,West,271,0.0,0.0,80,0.00,,,0.00,meteohub,2013-01-13 02:58:00,
2013-01-12 19:03:00,35.4,29.8,30.14,West,271,0.0,0.0,80,0.00,,,0.00,meteohub,2013-01-13 03:03:00,
2013-01-12 19:08:00,35.2,29.7,30.14,West,271,0.0,0.0,80,0.00,,,0.00,meteohub,2013-01-13 03:08:00,
2013-01-12 19:13:00,34.9,29.7,30.14,West,271,0.0,0.0,81,0.00,,,0.00,meteohub,2013-01-13 03:13:00,
2013-01-12 19:18:00,34.3,29.1,30.14,West,271,0.0,0.0,81,0.00,,,0.00,meteohub,2013-01-13 03:18:00,
2013-01-12 19:23:00,34.3,29.5,30.15,West,271,0.0,0.0,82,0.00,,,0.00,meteohub,2013-01-13 03:23:00,
2013-01-12 19:28:00,34.2,29.3,30.14,West,271,0.0,0.0,82,0.00,,,0.00,meteohub,2013-01-13 03:28:00,
2013-01-12 19:33:00,34.0,29.3,30.14,West,271,0.0,0.0,83,0.00,,,0.00,meteohub,2013-01-13 03:33:00,
2013-01-12 19:38:00,33.8,29.1,30.14,West,271,0.0,0.0,83,0.00,,,0.00,meteohub,2013-01-13 03:38:00,
2013-01-12 19:43:00,33.4,28.6,30.14,West,271,0.0,0.0,82,0.00,,,0.00,meteohub,2013-01-13 03:43:00,
2013-01-12 19:48:00,33.1,28.4,30.14,West,271,0.0,0.0,83,0.00,,,0.00,meteohub,2013-01-13 03:48:00,
2013-01-12 19:53:00,32.9,28.2,30.14,West,271,0.0,0.0,83,0.00,,,0.00,meteohub,2013-01-13 03:53:00,
2013-01-12 19:58:00,32.7,28.4,30.14,West,271,0.0,0.0,84,0.00,,,0.00,meteohub,2013-01-13 03:58:00,
2013-01-12 20:03:00,32.5,28.2,30.14,West,271,0.0,0.0,84,0.00,,,0.00,meteohub,2013-01-13 04:03:00,
2013-01-12 20:08:00,32.4,28.0,30.14,West,271,0.0,0.0,84,0.00,,,0.00,meteohub,2013-01-13 04:08:00,
2013-01-12 20:13:00,32.4,28.4,30.14,West,271,0.0,0.0,85,0.00,,,0.00,meteohub,2013-01-13 04:13:00,
2013-01-12 20:18:00,32.2,28.2,30.14,West,271,0.0,0.0,85,0.00,,,0.00,meteohub,2013-01-13 04:18:00,
2013-01-12 20:23:00,32.2,28.2,30.14,West,271,0.0,0.0,85,0.00,,,0.00,meteohub,2013-01-13 04:23:00,
2013-01-12 20:28:00,31.8,27.9,30.14,West,271,0.0,0.0,85,0.00,,,0.00,meteohub,2013-01-13 04:28:00,
2013-01-12 20:33:00,31.8,28.0,30.15,West,271,0.0,0.0,86,0.00,,,0.00,meteohub,2013-01-13 04:33:00,
2013-01-12 20:38:00,32.0,28.6,30.14,West,271,0.0,0.0,87,0.00,,,0.00,meteohub,2013-01-13 04:38:00,
2013-01-12 20:43:00,32.0,28.6,30.14,West,271,0.0,0.0,87,0.00,,,0.00,meteohub,2013-01-13 04:43:00,
2013-01-12 20:49:00,32.2,28.4,30.14,West,271,0.0,0.0,86,0.00,,,0.00,meteohub,2013-01-13 04:49:00,
2013-01-12 20:54:00,32.2,28.4,30.15,West,271,0.0,0.0,86,0.00,,,0.00,meteohub,2013-01-13 04:54:00,
2013-01-12 20:59:00,32.4,28.6,30.15,West,271,0.0,0.0,86,0.00,,,0.00,meteohub,2013-01-13 04:59:00,
2013-01-12 21:03:00,32.4,28.6,30.15,West,271,0.0,0.0,86,0.00,,,0.00,meteohub,2013-01-13 05:03:00,
2013-01-12 21:04:00,32.4,28.4,30.15,West,271,0.0,0.0,85,0.00,,,0.00,meteohub,2013-01-13 05:04:00,
2013-01-12 21:09:00,32.4,28.4,30.15,West,271,0.0,0.0,85,0.00,,,0.00,meteohub,2013-01-13 05:09:00,
2013-01-12 21:10:00,32.4,28.4,30.15,West,271,0.0,0.0,85,0.00,,,0.00,meteohub,2013-01-13 05:10:00,
2013-01-12 21:15:00,32.5,28.6,30.15,West,271,0.0,0.0,85,0.00,,,0.00,meteohub,2013-01-13 05:15:00,
2013-01-12 21:20:00,32.7,28.4,30.15,West,271,0.0,0.0,84,0.00,,,0.00,meteohub,2013-01-13 05:20:00,
2013-01-12 21:25:00,33.1,28.8,30.15,West,271,0.0,0.0,84,0.00,,,0.00,meteohub,2013-01-13 05:25:00,
2013-01-12 21:30:00,33.3,28.9,30.16,West,271,0.0,0.0,84,0.00,,,0.00,meteohub,2013-01-13 05:30:00,
2013-01-12 21:35:00,33.6,29.3,30.16,West,271,0.0,0.0,84,0.00,,,0.00,meteohub,2013-01-13 05:35:00,
2013-01-12 21:41:00,33.8,30.9,30.16,West,271,0.0,0.0,89,0.00,,,0.00,meteohub,2013-01-13 05:41:00,
2013-01-12 21:46:00,34.0,29.1,30.15,West,271,0.0,0.0,82,0.00,,,0.00,meteohub,2013-01-13 05:46:00,
2013-01-12 21:51:00,34.2,28.9,30.14,West,271,0.0,0.0,81,0.00,,,0.00,meteohub,2013-01-13 05:51:00,
2013-01-12 21:56:00,34.3,29.5,30.14,West,269,0.0,0.0,82,0.00,,,0.00,meteohub,2013-01-13 05:56:00,
2013-01-12 22:01:00,34.2,29.3,30.14,West,269,0.0,2.0,82,0.00,,,0.00,meteohub,2013-01-13 06:01:00,
2013-01-12 22:06:00,34.0,29.3,30.14,West,269,0.0,2.0,83,0.00,,,0.00,meteohub,2013-01-13 06:06:00,
2013-01-12 22:11:00,33.8,29.1,30.14,West,269,0.0,1.0,83,0.00,,,0.00,meteohub,2013-01-13 06:11:00,
2013-01-12 22:17:00,33.4,29.1,30.14,West,269,0.0,1.0,84,0.00,,,0.00,meteohub,2013-01-13 06:17:00,
2013-01-12 22:22:00,33.4,29.1,30.14,West,269,0.0,0.0,84,0.00,,,0.00,meteohub,2013-01-13 06:22:00,
2013-01-12 22:27:00,33.3,29.3,30.15,West,269,0.0,0.0,85,0.00,,,0.00,meteohub,2013-01-13 06:27:00,
2013-01-12 22:32:00,33.1,29.1,30.15,West,269,0.0,0.0,85,0.00,,,0.00,meteohub,2013-01-13 06:32:00,
2013-01-12 22:37:00,33.1,29.1,30.16,West,269,0.0,0.0,85,0.00,,,0.00,meteohub,2013-01-13 06:37:00,
2013-01-12 22:42:00,33.1,29.1,30.16,West,269,0.0,0.0,85,0.00,,,0.00,meteohub,2013-01-13 06:42:00,
2013-01-12 22:47:00,33.1,29.1,30.16,West,269,0.0,0.0,85,0.00,,,0.00,meteohub,2013-01-13 06:47:00,
2013-01-12 22:52:00,33.3,29.3,30.16,West,269,0.0,0.0,85,0.00,,,0.00,meteohub,2013-01-13 06:52:00,
2013-01-12 22:57:00,33.3,29.3,30.16,West,269,0.0,0.0,85,0.00,,,0.00,meteohub,2013-01-13 06:57:00,
2013-01-12 23:02:00,33.4,29.1,30.16,West,269,0.0,0.0,84,0.00,,,0.00,meteohub,2013-01-13 07:02:00,
2013-01-12 23:08:00,33.4,29.1,30.17,West,269,0.0,0.0,84,0.00,,,0.00,meteohub,2013-01-13 07:08:00,
2013-01-12 23:13:00,33.4,29.1,30.16,West,269,0.0,0.0,84,0.00,,,0.00,meteohub,2013-01-13 07:13:00,
2013-01-12 23:18:00,33.6,28.9,30.16,West,269,0.0,0.0,83,0.00,,,0.00,meteohub,2013-01-13 07:18:00,
2013-01-12 23:23:00,33.6,28.8,30.16,West,269,0.0,0.0,82,0.00,,,0.00,meteohub,2013-01-13 07:23:00,
2013-01-12 23:28:00,33.6,28.9,30.16,West,269,0.0,0.0,83,0.00,,,0.00,meteohub,2013-01-13 07:28:00,
2013-01-12 23:33:00,33.6,28.8,30.16,West,269,0.0,0.0,82,0.00,,,0.00,meteohub,2013-01-13 07:33:00,
2013-01-12 23:38:00,33.8,29.1,30.16,West,269,0.0,0.0,83,0.00,,,0.00,meteohub,2013-01-13 07:38:00,
2013-01-12 23:43:00,33.8,28.9,30.16,West,269,0.0,0.0,82,0.00,,,0.00,meteohub,2013-01-13 07:43:00,
2013-01-12 23:48:00,33.6,28.0,30.16,West,269,0.0,0.0,80,0.00,,,0.00,meteohub,2013-01-13 07:48:00,
2013-01-12 23:53:00,33.6,27.9,30.17,West,269,0.0,0.0,79,0.00,,,0.00,meteohub,2013-01-13 07:53:00,
2013-01-12 23:58:00,33.6,27.5,30.17,West,269,0.0,0.0,78,0.00,,,0.00,meteohub,2013-01-13 07:58:00,